Aviation Digital Data Service (ADDS)

Output produced by METARs form (1628 UTC 19 October 2017)
found at http://aviationweather.gov/adds/metars/
 
KCLT 191458Z 1915/2012 34004KT P6SM SCT250 
     FM191800 28003KT P6SM SKC 
     FM200000 35003KT P6SM SKC